CheckWX is a tool to help pilots better visualize weather data.  It is not intended as a substitute for an official pre-flight weather briefing.

21:54:44 UTC

HTDO TAF
Dodoma Airport
Dodoma, Tanzania
HTDO 201700Z 2018/2118 09010KT 9999 FEW024

Mar-20@
18:00 UTC

Mar-20 @ 18:00 UTC

Mar-21@
18:00 UTC

Mar-21 @ 18:00 UTC

HTDO 201700Z 2018/2118 09010KT 9999 FEW024
Wind
  • 090° at 10 KTS
Cloud Levels
  • Few at 2,400' AGL